Fassberg Airport


Codes: ETHS/
Name: Fassberg Airport
City:
Country: Germany
Elevation: 245 ft.

Photos at Fassberg Airport


   Photos courtesy of SpottingLog. You can add your own sightings and photos by signing up for a free trial today.



No photos found.

Weather at Fassberg Airport


Time (UTC)DescriptionTempratureWindCloud coverageVisibilityPressureHumidity
21-Jun-2024 12:00Light Rain24°C7 mph, S75%6806m1012hPa60%
21-Jun-2024 15:00Light Rain23°C9 mph, S83%10000m1011hPa71%
21-Jun-2024 18:00Light Rain21°C9 mph, SW80%8857m1010hPa82%
21-Jun-2024 21:00Light Rain18°C9 mph, SW62%10000m1009hPa98%
22-Jun-2024 00:00Broken Clouds15°C9 mph, W74%10000m1009hPa97%
22-Jun-2024 03:00Overcast Clouds14°C11 mph, W100%10000m1010hPa94%
22-Jun-2024 06:00Overcast Clouds15°C11 mph, W97%10000m1011hPa85%
22-Jun-2024 09:00Scattered Clouds19°C13 mph, W48%10000m1011hPa65%
22-Jun-2024 12:00Light Rain22°C11 mph, W57%10000m1011hPa48%
22-Jun-2024 15:00Light Rain20°C11 mph, W73%10000m1011hPa67%
22-Jun-2024 18:00Light Rain18°C9 mph, NW59%10000m1013hPa77%
22-Jun-2024 21:00Scattered Clouds14°C7 mph, NW25%10000m1014hPa98%
23-Jun-2024 00:00Scattered Clouds12°C4 mph, W30%10000m1015hPa98%
23-Jun-2024 03:00Scattered Clouds11°C4 mph, W33%10000m1017hPa99%
23-Jun-2024 06:00Scattered Clouds15°C9 mph, W31%10000m1017hPa78%
23-Jun-2024 09:00Scattered Clouds20°C9 mph, NW44%10000m1018hPa60%
23-Jun-2024 12:00Broken Clouds21°C9 mph, NW58%10000m1018hPa56%
23-Jun-2024 15:00Broken Clouds20°C7 mph, NW84%10000m1019hPa59%
23-Jun-2024 18:00Broken Clouds19°C7 mph, NW78%10000m1019hPa67%
23-Jun-2024 21:00Broken Clouds13°C4 mph, NW68%10000m1020hPa95%
24-Jun-2024 00:00Scattered Clouds12°C4 mph, NW39%10000m1021hPa97%
24-Jun-2024 03:00Few Clouds11°C4 mph, NW11%10000m1021hPa98%
24-Jun-2024 06:00Broken Clouds15°C4 mph, W51%10000m1021hPa76%
24-Jun-2024 09:00Scattered Clouds21°C4 mph, NW31%10000m1020hPa55%
24-Jun-2024 12:00Few Clouds24°C4 mph, N22%10000m1019hPa43%
24-Jun-2024 15:00Clear Sky25°C7 mph, NE0%10000m1018hPa41%
24-Jun-2024 18:00Few Clouds22°C4 mph, NE11%10000m1018hPa59%
24-Jun-2024 21:00Clear Sky16°C4 mph, NE4%10000m1019hPa86%
25-Jun-2024 00:00Clear Sky14°C4 mph, NE2%10000m1019hPa84%
25-Jun-2024 03:00Clear Sky13°C4 mph, E0%10000m1018hPa79%
25-Jun-2024 06:00Clear Sky18°C7 mph, E0%10000m1018hPa69%
25-Jun-2024 09:00Clear Sky23°C7 mph, E0%10000m1017hPa52%
25-Jun-2024 12:00Clear Sky26°C9 mph, E0%10000m1016hPa42%
25-Jun-2024 15:00Clear Sky26°C9 mph, E1%10000m1014hPa39%
25-Jun-2024 18:00Clear Sky24°C9 mph, E0%10000m1013hPa52%
25-Jun-2024 21:00Few Clouds19°C7 mph, E24%10000m1013hPa71%
26-Jun-2024 00:00Few Clouds17°C7 mph, E13%10000m1013hPa78%
26-Jun-2024 03:00Clear Sky16°C9 mph, E5%10000m1012hPa80%
26-Jun-2024 06:00Clear Sky19°C11 mph, E6%10000m1011hPa70%
26-Jun-2024 09:00Broken Clouds24°C11 mph, E68%10000m1009hPa51%